sensor_id;sensor_type;location;lat;lon;timestamp;temperature;humidity
16491;DHT22;8356;51.214;3.270;2023-08-07T00:00:33;435.40;2355.20
16491;DHT22;8356;51.214;3.270;2023-08-07T00:02:59;435.30;2355.20
16491;DHT22;8356;51.214;3.270;2023-08-07T00:05:24;435.40;2355.20
16491;DHT22;8356;51.214;3.270;2023-08-07T00:07:50;435.30;2355.20
16491;DHT22;8356;51.214;3.270;2023-08-07T00:10:16;435.30;2355.20
16491;DHT22;8356;51.214;3.270;2023-08-07T00:12:41;435.30;2355.20
16491;DHT22;8356;51.214;3.270;2023-08-07T00:15:09;435.30;2355.20
16491;DHT22;8356;51.214;3.270;2023-08-07T00:17:35;435.30;2355.20
16491;DHT22;8356;51.214;3.270;2023-08-07T00:20:01;435.30;2355.20
16491;DHT22;8356;51.214;3.270;2023-08-07T00:22:26;435.30;2355.20
16491;DHT22;8356;51.214;3.270;2023-08-07T00:24:52;435.30;2355.20
16491;DHT22;8356;51.214;3.270;2023-08-07T00:27:18;435.20;2355.20
16491;DHT22;8356;51.214;3.270;2023-08-07T00:29:43;435.20;2355.20
16491;DHT22;8356;51.214;3.270;2023-08-07T00:32:09;435.20;2355.20
16491;DHT22;8356;51.214;3.270;2023-08-07T00:34:35;435.20;2355.20
16491;DHT22;8356;51.214;3.270;2023-08-07T00:37:00;435.20;2355.20
16491;DHT22;8356;51.214;3.270;2023-08-07T00:39:26;410.50;2355.20
16491;DHT22;8356;51.214;3.270;2023-08-07T00:41:51;410.50;2355.20
16491;DHT22;8356;51.214;3.270;2023-08-07T00:44:17;410.50;2355.20
16491;DHT22;8356;51.214;3.270;2023-08-07T00:46:43;410.50;2355.20
16491;DHT22;8356;51.214;3.270;2023-08-07T00:49:10;410.50;2355.20
16491;DHT22;8356;51.214;3.270;2023-08-07T00:51:37;410.50;2355.20
16491;DHT22;8356;51.214;3.270;2023-08-07T00:54:04;435.90;2355.20
16491;DHT22;8356;51.214;3.270;2023-08-07T00:56:31;410.50;2355.20
16491;DHT22;8356;51.214;3.270;2023-08-07T00:59:00;410.50;2355.20
16491;DHT22;8356;51.214;3.270;2023-08-07T01:01:27;410.40;2355.20
16491;DHT22;8356;51.214;3.270;2023-08-07T01:03:54;410.40;2355.20
16491;DHT22;8356;51.214;3.270;2023-08-07T01:06:19;410.40;2355.20
16491;DHT22;8356;51.214;3.270;2023-08-07T01:08:46;410.40;2355.20
16491;DHT22;8356;51.214;3.270;2023-08-07T01:16:52;410.30;2355.20
16491;DHT22;8356;51.214;3.270;2023-08-07T01:19:28;410.30;2355.20
16491;DHT22;8356;51.214;3.270;2023-08-07T01:22:10;410.30;2355.20
16491;DHT22;8356;51.214;3.270;2023-08-07T01:24:37;410.30;2355.20
16491;DHT22;8356;51.214;3.270;2023-08-07T01:27:21;410.30;2355.20
16491;DHT22;8356;51.214;3.270;2023-08-07T01:35:14;410.40;2355.20
16491;DHT22;8356;51.214;3.270;2023-08-07T01:37:42;410.40;2355.20
16491;DHT22;8356;51.214;3.270;2023-08-07T01:40:09;410.20;2355.20
16491;DHT22;8356;51.214;3.270;2023-08-07T01:42:36;410.40;2355.20
16491;DHT22;8356;51.214;3.270;2023-08-07T01:45:03;410.40;2355.20
16491;DHT22;8356;51.214;3.270;2023-08-07T01:47:29;410.50;2355.20
16491;DHT22;8356;51.214;3.270;2023-08-07T01:49:55;410.50;2355.20
16491;DHT22;8356;51.214;3.270;2023-08-07T01:52:20;410.50;2355.20
16491;DHT22;8356;51.214;3.270;2023-08-07T01:54:46;410.50;2355.20
16491;DHT22;8356;51.214;3.270;2023-08-07T01:57:12;410.50;2355.20
16491;DHT22;8356;51.214;3.270;2023-08-07T01:59:38;410.50;2355.20
16491;DHT22;8356;51.214;3.270;2023-08-07T02:02:04;410.50;2355.20
16491;DHT22;8356;51.214;3.270;2023-08-07T02:04:29;410.50;2355.20
16491;DHT22;8356;51.214;3.270;2023-08-07T02:06:55;410.50;2355.20
16491;DHT22;8356;51.214;3.270;2023-08-07T02:09:21;410.50;2355.20
16491;DHT22;8356;51.214;3.270;2023-08-07T02:11:47;410.50;2355.20
16491;DHT22;8356;51.214;3.270;2023-08-07T02:14:12;410.50;2355.20
16491;DHT22;8356;51.214;3.270;2023-08-07T02:16:38;410.50;2355.20
16491;DHT22;8356;51.214;3.270;2023-08-07T02:19:04;410.50;2355.20
16491;DHT22;8356;51.214;3.270;2023-08-07T02:21:29;410.40;2355.20
16491;DHT22;8356;51.214;3.270;2023-08-07T02:23:55;410.40;2355.20
16491;DHT22;8356;51.214;3.270;2023-08-07T02:26:20;410.40;2355.20
16491;DHT22;8356;51.214;3.270;2023-08-07T02:28:46;410.30;2355.20
16491;DHT22;8356;51.214;3.270;2023-08-07T02:31:12;410.40;2355.20
16491;DHT22;8356;51.214;3.270;2023-08-07T02:33:37;410.40;2355.20
16491;DHT22;8356;51.214;3.270;2023-08-07T02:36:03;410.30;2355.20
16491;DHT22;8356;51.214;3.270;2023-08-07T02:38:28;410.30;2355.20
16491;DHT22;8356;51.214;3.270;2023-08-07T02:40:54;410.30;2355.20
16491;DHT22;8356;51.214;3.270;2023-08-07T02:43:20;410.30;2355.20
16491;DHT22;8356;51.214;3.270;2023-08-07T02:45:45;410.30;2355.20
16491;DHT22;8356;51.214;3.270;2023-08-07T02:48:11;410.30;2355.20
16491;DHT22;8356;51.214;3.270;2023-08-07T02:50:37;410.20;2355.20
16491;DHT22;8356;51.214;3.270;2023-08-07T02:53:03;410.20;2355.20
16491;DHT22;8356;51.214;3.270;2023-08-07T02:55:28;410.20;2355.20
16491;DHT22;8356;51.214;3.270;2023-08-07T02:57:54;410.20;2355.20
16491;DHT22;8356;51.214;3.270;2023-08-07T03:00:20;410.20;2355.20
16491;DHT22;8356;51.214;3.270;2023-08-07T03:02:45;410.20;2355.20
16491;DHT22;8356;51.214;3.270;2023-08-07T03:05:11;410.20;2355.20
16491;DHT22;8356;51.214;3.270;2023-08-07T03:07:37;410.20;2355.20
16491;DHT22;8356;51.214;3.270;2023-08-07T03:10:03;410.20;2355.20
16491;DHT22;8356;51.214;3.270;2023-08-07T03:12:29;410.20;2355.20
16491;DHT22;8356;51.214;3.270;2023-08-07T03:14:55;410.20;2355.20
16491;DHT22;8356;51.214;3.270;2023-08-07T03:17:20;410.20;2355.20
16491;DHT22;8356;51.214;3.270;2023-08-07T03:19:46;410.20;2355.20
16491;DHT22;8356;51.214;3.270;2023-08-07T03:22:12;410.20;2355.20
16491;DHT22;8356;51.214;3.270;2023-08-07T03:24:38;410.20;2355.20
16491;DHT22;8356;51.214;3.270;2023-08-07T03:27:03;410.20;2355.20
16491;DHT22;8356;51.214;3.270;2023-08-07T03:29:29;410.20;2355.20
16491;DHT22;8356;51.214;3.270;2023-08-07T03:31:55;410.20;2355.20
16491;DHT22;8356;51.214;3.270;2023-08-07T03:34:21;410.20;2355.20
16491;DHT22;8356;51.214;3.270;2023-08-07T03:36:46;410.20;2355.20
16491;DHT22;8356;51.214;3.270;2023-08-07T03:39:12;410.30;2355.20
16491;DHT22;8356;51.214;3.270;2023-08-07T03:41:38;410.30;2355.20
16491;DHT22;8356;51.214;3.270;2023-08-07T03:44:04;410.20;2355.20
16491;DHT22;8356;51.214;3.270;2023-08-07T03:46:29;410.30;2355.20
16491;DHT22;8356;51.214;3.270;2023-08-07T03:48:55;410.20;2355.20
16491;DHT22;8356;51.214;3.270;2023-08-07T03:51:20;410.20;2355.20
16491;DHT22;8356;51.214;3.270;2023-08-07T03:53:46;410.20;2355.20
16491;DHT22;8356;51.214;3.270;2023-08-07T03:56:12;410.20;2355.20
16491;DHT22;8356;51.214;3.270;2023-08-07T03:58:38;410.20;2355.20
16491;DHT22;8356;51.214;3.270;2023-08-07T04:01:04;410.20;2355.20
16491;DHT22;8356;51.214;3.270;2023-08-07T04:03:29;410.20;2355.20
16491;DHT22;8356;51.214;3.270;2023-08-07T04:05:55;410.20;2355.20
16491;DHT22;8356;51.214;3.270;2023-08-07T04:08:21;410.20;2355.20
16491;DHT22;8356;51.214;3.270;2023-08-07T04:11:04;410.10;2355.20
16491;DHT22;8356;51.214;3.270;2023-08-07T04:13:30;410.10;2355.20
16491;DHT22;8356;51.214;3.270;2023-08-07T04:15:56;435.60;2355.20
16491;DHT22;8356;51.214;3.270;2023-08-07T04:18:22;410.10;2355.20
16491;DHT22;8356;51.214;3.270;2023-08-07T04:20:52;410.10;2355.20
16491;DHT22;8356;51.214;3.270;2023-08-07T04:23:19;410.10;2355.20
16491;DHT22;8356;51.214;3.270;2023-08-07T04:25:46;410.10;2355.20
16491;DHT22;8356;51.214;3.270;2023-08-07T04:28:12;410.10;2355.20
16491;DHT22;8356;51.214;3.270;2023-08-07T04:30:38;410.10;2355.20
16491;DHT22;8356;51.214;3.270;2023-08-07T04:33:04;410.20;2355.20
16491;DHT22;8356;51.214;3.270;2023-08-07T04:35:31;410.10;2355.20
16491;DHT22;8356;51.214;3.270;2023-08-07T04:37:56;410.20;2355.20
16491;DHT22;8356;51.214;3.270;2023-08-07T04:40:22;410.20;2355.20
16491;DHT22;8356;51.214;3.270;2023-08-07T04:42:51;410.20;2355.20
16491;DHT22;8356;51.214;3.270;2023-08-07T04:45:17;410.20;2355.20
16491;DHT22;8356;51.214;3.270;2023-08-07T04:47:42;410.20;2355.20
16491;DHT22;8356;51.214;3.270;2023-08-07T04:50:08;410.20;2355.20
16491;DHT22;8356;51.214;3.270;2023-08-07T04:52:34;410.20;2355.20
16491;DHT22;8356;51.214;3.270;2023-08-07T04:55:00;410.20;2355.20
16491;DHT22;8356;51.214;3.270;2023-08-07T04:57:26;410.20;2355.20
16491;DHT22;8356;51.214;3.270;2023-08-07T04:59:52;410.20;2355.20
16491;DHT22;8356;51.214;3.270;2023-08-07T05:02:18;410.20;2355.20
16491;DHT22;8356;51.214;3.270;2023-08-07T05:04:44;410.20;2355.20
16491;DHT22;8356;51.214;3.270;2023-08-07T05:07:10;410.20;2355.20
16491;DHT22;8356;51.214;3.270;2023-08-07T05:09:35;410.20;2355.20
16491;DHT22;8356;51.214;3.270;2023-08-07T05:12:01;410.20;2355.20
16491;DHT22;8356;51.214;3.270;2023-08-07T05:14:28;410.20;2355.20
16491;DHT22;8356;51.214;3.270;2023-08-07T05:16:54;410.20;2355.20
16491;DHT22;8356;51.214;3.270;2023-08-07T05:19:20;410.20;2355.20
16491;DHT22;8356;51.214;3.270;2023-08-07T05:21:45;410.20;2355.20
16491;DHT22;8356;51.214;3.270;2023-08-07T05:24:15;410.20;2355.20
16491;DHT22;8356;51.214;3.270;2023-08-07T05:26:41;410.20;2355.20
16491;DHT22;8356;51.214;3.270;2023-08-07T05:29:07;410.20;2355.20
16491;DHT22;8356;51.214;3.270;2023-08-07T05:31:33;410.20;2355.20
16491;DHT22;8356;51.214;3.270;2023-08-07T05:33:59;410.20;2355.20
16491;DHT22;8356;51.214;3.270;2023-08-07T05:36:24;410.30;2355.20
16491;DHT22;8356;51.214;3.270;2023-08-07T05:38:50;410.30;2355.20
16491;DHT22;8356;51.214;3.270;2023-08-07T05:41:16;410.30;2355.20
16491;DHT22;8356;51.214;3.270;2023-08-07T05:43:42;410.30;2355.20
16491;DHT22;8356;51.214;3.270;2023-08-07T05:46:07;410.40;2355.20
16491;DHT22;8356;51.214;3.270;2023-08-07T05:48:33;410.40;2355.20
16491;DHT22;8356;51.214;3.270;2023-08-07T05:50:59;410.40;2355.20
16491;DHT22;8356;51.214;3.270;2023-08-07T05:53:24;410.50;2355.20
16491;DHT22;8356;51.214;3.270;2023-08-07T05:55:50;410.50;2355.20
16491;DHT22;8356;51.214;3.270;2023-08-07T05:58:15;410.50;2355.20
16491;DHT22;8356;51.214;3.270;2023-08-07T06:00:41;410.50;2355.20
16491;DHT22;8356;51.214;3.270;2023-08-07T06:03:07;435.20;2355.20
16491;DHT22;8356;51.214;3.270;2023-08-07T06:05:34;435.20;2355.20
16491;DHT22;8356;51.214;3.270;2023-08-07T06:08:00;410.50;2355.20
16491;DHT22;8356;51.214;3.270;2023-08-07T06:10:26;435.20;2355.20
16491;DHT22;8356;51.214;3.270;2023-08-07T06:12:52;435.30;2355.20
16491;DHT22;8356;51.214;3.270;2023-08-07T06:15:18;435.30;2355.20
16491;DHT22;8356;51.214;3.270;2023-08-07T06:17:43;435.40;2355.20
16491;DHT22;8356;51.214;3.270;2023-08-07T06:20:09;435.40;2355.20
16491;DHT22;8356;51.214;3.270;2023-08-07T06:22:37;435.50;2355.20
16491;DHT22;8356;51.214;3.270;2023-08-07T06:25:02;435.50;2355.20
16491;DHT22;8356;51.214;3.270;2023-08-07T06:27:28;435.50;2355.20
16491;DHT22;8356;51.214;3.270;2023-08-07T06:29:54;435.60;2355.20
16491;DHT22;8356;51.214;3.270;2023-08-07T06:32:20;435.60;2355.20
16491;DHT22;8356;51.214;3.270;2023-08-07T06:34:45;435.70;2355.20
16491;DHT22;8356;51.214;3.270;2023-08-07T06:37:12;435.80;2355.20
16491;DHT22;8356;51.214;3.270;2023-08-07T06:39:37;435.80;2355.20
16491;DHT22;8356;51.214;3.270;2023-08-07T06:42:03;435.90;2355.20
16491;DHT22;8356;51.214;3.270;2023-08-07T06:44:29;435.90;2355.20
16491;DHT22;8356;51.214;3.270;2023-08-07T06:46:55;436.00;2355.20
16491;DHT22;8356;51.214;3.270;2023-08-07T06:49:21;436.00;2355.20
16491;DHT22;8356;51.214;3.270;2023-08-07T06:51:46;436.10;2355.20
16491;DHT22;8356;51.214;3.270;2023-08-07T06:54:12;436.10;2355.20
16491;DHT22;8356;51.214;3.270;2023-08-07T06:56:37;460.80;2380.80
16491;DHT22;8356;51.214;3.270;2023-08-07T06:59:06;460.80;2380.80
16491;DHT22;8356;51.214;3.270;2023-08-07T07:01:32;460.80;2380.80
16491;DHT22;8356;51.214;3.270;2023-08-07T07:03:57;460.90;2380.80
16491;DHT22;8356;51.214;3.270;2023-08-07T07:06:23;461.00;2380.80
16491;DHT22;8356;51.214;3.270;2023-08-07T07:08:51;461.00;2380.80
16491;DHT22;8356;51.214;3.270;2023-08-07T07:11:19;461.10;2380.80
16491;DHT22;8356;51.214;3.270;2023-08-07T07:13:46;461.20;2380.80
16491;DHT22;8356;51.214;3.270;2023-08-07T07:16:11;461.20;2380.80
16491;DHT22;8356;51.214;3.270;2023-08-07T07:18:38;461.30;2380.80
16491;DHT22;8356;51.214;3.270;2023-08-07T07:21:04;461.40;2380.80
16491;DHT22;8356;51.214;3.270;2023-08-07T07:23:30;461.50;2380.80
16491;DHT22;8356;51.214;3.270;2023-08-07T07:25:56;461.50;2380.80
16491;DHT22;8356;51.214;3.270;2023-08-07T07:28:23;461.70;2380.80
16491;DHT22;8356;51.214;3.270;2023-08-07T07:30:49;486.40;2380.80
16491;DHT22;8356;51.214;3.270;2023-08-07T07:33:16;486.50;2380.80
16491;DHT22;8356;51.214;3.270;2023-08-07T07:35:42;486.60;2380.80
16491;DHT22;8356;51.214;3.270;2023-08-07T07:38:08;486.70;2380.80
16491;DHT22;8356;51.214;3.270;2023-08-07T07:40:37;486.80;2380.80
16491;DHT22;8356;51.214;3.270;2023-08-07T07:43:03;486.80;2380.80
16491;DHT22;8356;51.214;3.270;2023-08-07T07:45:28;486.80;2380.80
16491;DHT22;8356;51.214;3.270;2023-08-07T07:47:55;486.90;2380.80
16491;DHT22;8356;51.214;3.270;2023-08-07T07:50:21;486.80;2380.80
16491;DHT22;8356;51.214;3.270;2023-08-07T07:52:46;486.80;2380.80
16491;DHT22;8356;51.214;3.270;2023-08-07T07:55:12;486.90;2380.80
16491;DHT22;8356;51.214;3.270;2023-08-07T07:57:39;487.00;2380.80
16491;DHT22;8356;51.214;3.270;2023-08-07T08:00:06;487.10;2380.80
16491;DHT22;8356;51.214;3.270;2023-08-07T08:02:45;487.30;2380.80
16491;DHT22;8356;51.214;3.270;2023-08-07T08:05:11;512.00;2380.80
16491;DHT22;8356;51.214;3.270;2023-08-07T08:07:38;512.00;2380.80
16491;DHT22;8356;51.214;3.270;2023-08-07T08:10:06;512.10;2380.80
16491;DHT22;8356;51.214;3.270;2023-08-07T08:12:32;512.00;2380.80
16491;DHT22;8356;51.214;3.270;2023-08-07T08:14:57;512.00;2380.80
16491;DHT22;8356;51.214;3.270;2023-08-07T08:17:23;487.30;2380.80
16491;DHT22;8356;51.214;3.270;2023-08-07T08:19:49;512.10;2380.80
16491;DHT22;8356;51.214;3.270;2023-08-07T08:22:15;512.20;2380.80
16491;DHT22;8356;51.214;3.270;2023-08-07T08:24:41;512.40;2380.80
16491;DHT22;8356;51.214;3.270;2023-08-07T08:27:06;512.40;2380.80
16491;DHT22;8356;51.214;3.270;2023-08-07T08:29:32;512.40;2380.80
16491;DHT22;8356;51.214;3.270;2023-08-07T08:31:57;512.80;2380.80
16491;DHT22;8356;51.214;3.270;2023-08-07T08:34:25;512.70;2380.80
16491;DHT22;8356;51.214;3.270;2023-08-07T08:36:51;512.50;2380.80
16491;DHT22;8356;51.214;3.270;2023-08-07T08:39:16;512.10;2380.80
16491;DHT22;8356;51.214;3.270;2023-08-07T08:41:45;487.20;2380.80
16491;DHT22;8356;51.214;3.270;2023-08-07T08:44:12;487.30;2380.80
16491;DHT22;8356;51.214;3.270;2023-08-07T08:46:40;512.00;2380.80
16491;DHT22;8356;51.214;3.270;2023-08-07T08:49:08;512.20;2380.80
16491;DHT22;8356;51.214;3.270;2023-08-07T08:51:36;512.20;2380.80
16491;DHT22;8356;51.214;3.270;2023-08-07T08:54:03;512.00;2380.80
16491;DHT22;8356;51.214;3.270;2023-08-07T08:56:30;512.00;2380.80
16491;DHT22;8356;51.214;3.270;2023-08-07T08:58:56;512.00;2380.80
16491;DHT22;8356;51.214;3.270;2023-08-07T09:01:22;512.30;2380.80
16491;DHT22;8356;51.214;3.270;2023-08-07T09:03:49;512.50;2380.80
16491;DHT22;8356;51.214;3.270;2023-08-07T09:06:15;512.70;2380.80
16491;DHT22;8356;51.214;3.270;2023-08-07T09:08:42;537.60;2406.40
16491;DHT22;8356;51.214;3.270;2023-08-07T09:11:10;538.10;2406.40
16491;DHT22;8356;51.214;3.270;2023-08-07T09:13:37;512.70;2380.80
16491;DHT22;8356;51.214;3.270;2023-08-07T09:16:04;512.30;2380.80
16491;DHT22;8356;51.214;3.270;2023-08-07T09:18:33;512.00;2380.80
16491;DHT22;8356;51.214;3.270;2023-08-07T09:21:00;512.00;2380.80
16491;DHT22;8356;51.214;3.270;2023-08-07T09:23:25;512.50;2380.80
16491;DHT22;8356;51.214;3.270;2023-08-07T09:26:04;537.70;2406.40
16491;DHT22;8356;51.214;3.270;2023-08-07T09:28:31;538.20;2406.40
16491;DHT22;8356;51.214;3.270;2023-08-07T09:30:58;538.40;2406.40
16491;DHT22;8356;51.214;3.270;2023-08-07T09:33:28;538.10;2406.40
16491;DHT22;8356;51.214;3.270;2023-08-07T09:36:01;538.00;2406.40
16491;DHT22;8356;51.214;3.270;2023-08-07T09:38:35;538.00;2406.40
16491;DHT22;8356;51.214;3.270;2023-08-07T09:41:02;537.70;2406.40
16491;DHT22;8356;51.214;3.270;2023-08-07T09:43:29;538.00;2406.40
16491;DHT22;8356;51.214;3.270;2023-08-07T09:46:05;538.10;2406.40
16491;DHT22;8356;51.214;3.270;2023-08-07T09:48:31;538.10;2406.40
16491;DHT22;8356;51.214;3.270;2023-08-07T09:51:02;538.10;2406.40
16491;DHT22;8356;51.214;3.270;2023-08-07T09:53:31;538.10;2406.40
16491;DHT22;8356;51.214;3.270;2023-08-07T09:55:58;538.30;2406.40
16491;DHT22;8356;51.214;3.270;2023-08-07T09:58:24;538.20;2406.40
16491;DHT22;8356;51.214;3.270;2023-08-07T10:00:50;538.30;2406.40
16491;DHT22;8356;51.214;3.270;2023-08-07T10:03:19;538.40;2406.40
16491;DHT22;8356;51.214;3.270;2023-08-07T10:05:45;538.20;2406.40
16491;DHT22;8356;51.214;3.270;2023-08-07T10:08:11;537.80;2406.40
16491;DHT22;8356;51.214;3.270;2023-08-07T10:10:38;537.80;2406.40
16491;DHT22;8356;51.214;3.270;2023-08-07T10:13:04;512.90;2380.80
16491;DHT22;8356;51.214;3.270;2023-08-07T10:15:31;537.60;2406.40
16491;DHT22;8356;51.214;3.270;2023-08-07T10:17:57;537.80;2406.40
16491;DHT22;8356;51.214;3.270;2023-08-07T10:20:26;538.10;2406.40
16491;DHT22;8356;51.214;3.270;2023-08-07T10:22:53;538.20;2406.40
16491;DHT22;8356;51.214;3.270;2023-08-07T10:25:21;538.40;2406.40
16491;DHT22;8356;51.214;3.270;2023-08-07T10:27:52;563.40;2432.00
16491;DHT22;8356;51.214;3.270;2023-08-07T10:30:19;563.80;2432.00
16491;DHT22;8356;51.214;3.270;2023-08-07T10:32:46;564.10;2432.00
16491;DHT22;8356;51.214;3.270;2023-08-07T10:35:31;564.10;2432.00
16491;DHT22;8356;51.214;3.270;2023-08-07T10:38:09;564.10;2432.00
16491;DHT22;8356;51.214;3.270;2023-08-07T10:41:10;588.80;2432.00
16491;DHT22;8356;51.214;3.270;2023-08-07T10:43:41;589.00;2432.00
16491;DHT22;8356;51.214;3.270;2023-08-07T10:46:16;588.90;2432.00
16491;DHT22;8356;51.214;3.270;2023-08-07T10:48:45;564.00;2432.00
16491;DHT22;8356;51.214;3.270;2023-08-07T10:51:15;564.10;2432.00
16491;DHT22;8356;51.214;3.270;2023-08-07T10:53:43;563.50;2432.00
16491;DHT22;8356;51.214;3.270;2023-08-07T10:58:42;563.40;2432.00
16491;DHT22;8356;51.214;3.270;2023-08-07T11:03:45;563.50;2432.00
16491;DHT22;8356;51.214;3.270;2023-08-07T11:06:13;563.90;2432.00
16491;DHT22;8356;51.214;3.270;2023-08-07T11:08:40;564.00;2432.00
16491;DHT22;8356;51.214;3.270;2023-08-07T11:11:06;564.00;2432.00
16491;DHT22;8356;51.214;3.270;2023-08-07T11:13:33;563.70;2432.00
16491;DHT22;8356;51.214;3.270;2023-08-07T11:16:02;563.30;2432.00
16491;DHT22;8356;51.214;3.270;2023-08-07T11:18:28;563.20;2432.00
16491;DHT22;8356;51.214;3.270;2023-08-07T11:20:57;538.40;2406.40
16491;DHT22;8356;51.214;3.270;2023-08-07T11:23:24;563.30;2432.00
16491;DHT22;8356;51.214;3.270;2023-08-07T11:25:53;563.20;2432.00
16491;DHT22;8356;51.214;3.270;2023-08-07T11:28:20;563.60;2432.00
16491;DHT22;8356;51.214;3.270;2023-08-07T11:30:50;564.00;2432.00
16491;DHT22;8356;51.214;3.270;2023-08-07T11:33:20;564.00;2432.00
16491;DHT22;8356;51.214;3.270;2023-08-07T11:35:46;588.80;2432.00
16491;DHT22;8356;51.214;3.270;2023-08-07T11:38:12;589.60;2432.00
16491;DHT22;8356;51.214;3.270;2023-08-07T11:40:38;589.50;2432.00
16491;DHT22;8356;51.214;3.270;2023-08-07T11:43:04;589.60;2432.00
16491;DHT22;8356;51.214;3.270;2023-08-07T11:45:29;589.40;2432.00
16491;DHT22;8356;51.214;3.270;2023-08-07T11:47:56;589.20;2432.00
16491;DHT22;8356;51.214;3.270;2023-08-07T11:50:27;589.30;2432.00
16491;DHT22;8356;51.214;3.270;2023-08-07T11:52:53;589.20;2432.00
16491;DHT22;8356;51.214;3.270;2023-08-07T11:55:19;589.40;2432.00
16491;DHT22;8356;51.214;3.270;2023-08-07T11:57:47;589.40;2432.00
16491;DHT22;8356;51.214;3.270;2023-08-07T12:00:13;589.50;2432.00
16491;DHT22;8356;51.214;3.270;2023-08-07T12:02:43;589.20;2432.00
16491;DHT22;8356;51.214;3.270;2023-08-07T12:05:12;588.90;2432.00
16491;DHT22;8356;51.214;3.270;2023-08-07T12:07:38;564.10;2432.00
16491;DHT22;8356;51.214;3.270;2023-08-07T12:10:08;564.10;2432.00
16491;DHT22;8356;51.214;3.270;2023-08-07T12:12:38;588.90;2432.00
16491;DHT22;8356;51.214;3.270;2023-08-07T12:15:10;589.00;2432.00
16491;DHT22;8356;51.214;3.270;2023-08-07T12:17:36;588.90;2432.00
16491;DHT22;8356;51.214;3.270;2023-08-07T12:20:06;564.10;2432.00
16491;DHT22;8356;51.214;3.270;2023-08-07T12:22:35;588.80;2432.00
16491;DHT22;8356;51.214;3.270;2023-08-07T12:25:01;564.10;2432.00
16491;DHT22;8356;51.214;3.270;2023-08-07T12:27:27;588.80;2432.00
16491;DHT22;8356;51.214;3.270;2023-08-07T12:29:53;589.00;2432.00
16491;DHT22;8356;51.214;3.270;2023-08-07T12:32:19;589.00;2432.00
16491;DHT22;8356;51.214;3.270;2023-08-07T12:34:44;589.10;2432.00
16491;DHT22;8356;51.214;3.270;2023-08-07T12:37:10;589.00;2432.00
16491;DHT22;8356;51.214;3.270;2023-08-07T12:39:36;589.10;2432.00
16491;DHT22;8356;51.214;3.270;2023-08-07T12:42:01;588.90;2432.00
16491;DHT22;8356;51.214;3.270;2023-08-07T12:44:29;563.90;2432.00
16491;DHT22;8356;51.214;3.270;2023-08-07T12:46:54;563.60;2432.00
16491;DHT22;8356;51.214;3.270;2023-08-07T12:49:20;563.50;2432.00
16491;DHT22;8356;51.214;3.270;2023-08-07T12:51:46;563.50;2432.00
16491;DHT22;8356;51.214;3.270;2023-08-07T12:54:11;563.60;2432.00
16491;DHT22;8356;51.214;3.270;2023-08-07T12:56:37;563.80;2432.00
16491;DHT22;8356;51.214;3.270;2023-08-07T12:59:02;564.00;2432.00
16491;DHT22;8356;51.214;3.270;2023-08-07T13:01:28;564.00;2432.00
16491;DHT22;8356;51.214;3.270;2023-08-07T13:03:54;564.10;2432.00
16491;DHT22;8356;51.214;3.270;2023-08-07T13:06:20;564.00;2432.00
16491;DHT22;8356;51.214;3.270;2023-08-07T13:08:46;563.60;2432.00
16491;DHT22;8356;51.214;3.270;2023-08-07T13:11:11;563.50;2432.00
16491;DHT22;8356;51.214;3.270;2023-08-07T13:13:37;563.90;2432.00
16491;DHT22;8356;51.214;3.270;2023-08-07T13:16:04;564.00;2432.00
16491;DHT22;8356;51.214;3.270;2023-08-07T13:18:29;564.10;2432.00
16491;DHT22;8356;51.214;3.270;2023-08-07T13:20:55;564.00;2432.00
16491;DHT22;8356;51.214;3.270;2023-08-07T13:23:22;563.90;2432.00
16491;DHT22;8356;51.214;3.270;2023-08-07T13:25:47;563.60;2432.00
16491;DHT22;8356;51.214;3.270;2023-08-07T13:28:13;563.60;2432.00
16491;DHT22;8356;51.214;3.270;2023-08-07T13:30:39;563.70;2432.00
16491;DHT22;8356;51.214;3.270;2023-08-07T13:33:05;563.90;2432.00
16491;DHT22;8356;51.214;3.270;2023-08-07T13:35:30;563.90;2432.00
16491;DHT22;8356;51.214;3.270;2023-08-07T13:37:58;563.70;2432.00
16491;DHT22;8356;51.214;3.270;2023-08-07T13:40:23;563.40;2432.00
16491;DHT22;8356;51.214;3.270;2023-08-07T13:42:49;563.30;2432.00
16491;DHT22;8356;51.214;3.270;2023-08-07T13:45:15;538.50;2406.40
16491;DHT22;8356;51.214;3.270;2023-08-07T13:47:40;538.50;2406.40
16491;DHT22;8356;51.214;3.270;2023-08-07T13:50:06;563.20;2432.00
16491;DHT22;8356;51.214;3.270;2023-08-07T13:52:33;563.40;2432.00
16491;DHT22;8356;51.214;3.270;2023-08-07T13:54:59;563.40;2432.00
16491;DHT22;8356;51.214;3.270;2023-08-07T13:57:25;563.50;2432.00
16491;DHT22;8356;51.214;3.270;2023-08-07T13:59:50;563.70;2432.00
16491;DHT22;8356;51.214;3.270;2023-08-07T14:02:16;563.80;2432.00
16491;DHT22;8356;51.214;3.270;2023-08-07T14:04:42;563.60;2432.00
16491;DHT22;8356;51.214;3.270;2023-08-07T14:07:11;563.60;2432.00
16491;DHT22;8356;51.214;3.270;2023-08-07T14:09:37;563.80;2432.00
16491;DHT22;8356;51.214;3.270;2023-08-07T14:12:03;563.90;2432.00
16491;DHT22;8356;51.214;3.270;2023-08-07T14:14:29;563.90;2432.00
16491;DHT22;8356;51.214;3.270;2023-08-07T14:16:55;563.90;2432.00
16491;DHT22;8356;51.214;3.270;2023-08-07T14:19:23;563.90;2432.00
16491;DHT22;8356;51.214;3.270;2023-08-07T14:21:49;564.00;2432.00
16491;DHT22;8356;51.214;3.270;2023-08-07T14:24:15;564.00;2432.00
16491;DHT22;8356;51.214;3.270;2023-08-07T14:26:42;564.00;2432.00
16491;DHT22;8356;51.214;3.270;2023-08-07T14:29:08;564.00;2432.00
16491;DHT22;8356;51.214;3.270;2023-08-07T14:31:34;563.90;2432.00
16491;DHT22;8356;51.214;3.270;2023-08-07T14:34:00;564.00;2432.00
16491;DHT22;8356;51.214;3.270;2023-08-07T14:36:25;588.90;2432.00
16491;DHT22;8356;51.214;3.270;2023-08-07T14:38:51;588.90;2432.00
16491;DHT22;8356;51.214;3.270;2023-08-07T14:41:17;564.10;2432.00
16491;DHT22;8356;51.214;3.270;2023-08-07T14:43:44;564.00;2432.00
16491;DHT22;8356;51.214;3.270;2023-08-07T14:46:09;563.90;2432.00
16491;DHT22;8356;51.214;3.270;2023-08-07T14:48:35;563.90;2432.00
16491;DHT22;8356;51.214;3.270;2023-08-07T14:51:01;563.90;2432.00
16491;DHT22;8356;51.214;3.270;2023-08-07T14:53:26;563.80;2432.00
16491;DHT22;8356;51.214;3.270;2023-08-07T14:55:52;563.90;2432.00
16491;DHT22;8356;51.214;3.270;2023-08-07T14:58:18;563.90;2432.00
16491;DHT22;8356;51.214;3.270;2023-08-07T15:00:44;564.00;2432.00
16491;DHT22;8356;51.214;3.270;2023-08-07T15:03:10;563.90;2432.00
16491;DHT22;8356;51.214;3.270;2023-08-07T15:05:36;563.70;2432.00
16491;DHT22;8356;51.214;3.270;2023-08-07T15:08:02;563.70;2432.00
16491;DHT22;8356;51.214;3.270;2023-08-07T15:10:28;563.90;2432.00
16491;DHT22;8356;51.214;3.270;2023-08-07T15:12:54;563.40;2432.00
16491;DHT22;8356;51.214;3.270;2023-08-07T15:15:21;564.00;2432.00